メインページ
METAR-TAF:

METAR-TAF

空港 :

ポートオブスペイン, トリニダード島, トリニダード・トバゴ

緯度: 10-37N, 経度: 061-21W, 海抜: 12m

現時点の気象観測

当レポートは30分前の01:00(UTC)に作成
東/北東の風 5kt
気温 25°C
湿度 94%
気圧 1013 hPa
視程10km以上
高度1600ftの雲はほとんどない

METAR: TTPP 190100Z 07005KT 9999 FEW016 25/24 Q1013 NOSIG

時間: 21:30 (01:30 UTC)

予報

当レポートは3時間30分前の22:00(UTC)に作成
予報は19日の 00時(UTC)から 19日の 24時(UTC)まで有効
の風 kt
視程10km以上
高度1600ftの雲はほとんどない
確率 40% :
19日の 08時(UTC)から 19日の 14時(UTC)まで一時的に
視程: 7000m
高度1500ftの千切れ雲あり
にわか雨
19日の 12時(UTC)から 19日の 14時(UTC)まで徐々に
の風 15kt
高度2200ftの雲は散在している

TAF: TTPP 182200Z 1900/1924 00000KT 9999 FEW016 PROB40 TEMPO 1908/1914 7000 SHRA BKN015 BECMG 1912/1914 10015KT SCT022

4,000以上の空港の気象観測と天気予報(METAR報とTAF報)

利用可能な観測所は地図上に黄色い丸と赤い丸で示す。

丸の上にカーソルを重ねると観測所名を参照できる。

次にクリックすると気象観測と天気予報を参照できる。

マップの切り替え:黒色「×」印の緑ボタンをクリックして拡大、「-」印の緑ボタンをクリックして縮小、緑色の三角印をクリックして隣りの地図に切り替え


METAR-TAF: